Time;durP1;ratioP1;P1;durP2;ratioP2;P2;SDS_P1;SDS_P2;PMS_P1;PMS_P2;Temp;Humidity;BMP_temperature;BMP_pressure;BME280_temperature;BME280_humidity;BME280_pressure;Samples;Min_cycle;Max_cycle;Signal;HPM_P1;HPM_P2
2022/06/19 00:01:09;;;;;;;8.55;7.15;;;14.80;99.90;;;;;;5074063;28;20028;-75
2022/06/19 00:03:43;;;;;;;8.90;7.60;;;14.80;99.90;;;;;;5055136;28;20032;-73
2022/06/19 00:06:09;;;;;;;8.25;7.53;;;14.70;99.90;;;;;;5054829;28;20052;-75
2022/06/19 00:08:35;;;;;;;10.60;8.63;;;14.70;99.90;;;;;;5055136;28;20091;-75
2022/06/19 00:11:03;;;;;;;11.00;9.00;;;14.60;99.90;;;;;;5036863;28;20028;-75
2022/06/19 00:13:29;;;;;;;10.50;8.57;;;14.60;99.90;;;;;;5054799;28;20055;-76
2022/06/19 00:15:55;;;;;;;8.60;7.57;;;14.50;99.90;;;;;;5054938;28;20429;-75
2022/06/19 00:18:21;;;;;;;8.35;7.03;;;14.50;99.90;;;;;;5054739;28;20025;-75
2022/06/19 00:20:47;;;;;;;9.65;8.10;;;14.50;99.90;;;;;;5068958;28;20020;-75
2022/06/19 00:23:13;;;;;;;8.90;7.97;;;14.50;99.90;;;;;;5074632;28;20107;-72
2022/06/19 00:25:39;;;;;;;9.63;7.90;;;14.50;99.90;;;;;;5056594;28;20032;-72
2022/06/19 00:28:05;;;;;;;8.38;7.45;;;14.60;99.90;;;;;;5056451;28;20059;-72
2022/06/19 00:30:31;;;;;;;11.07;7.80;;;14.60;99.90;;;;;;5074589;28;20056;-72
2022/06/19 00:32:58;;;;;;;9.93;8.45;;;14.50;99.90;;;;;;5074408;28;20063;-73
2022/06/19 00:35:26;;;;;;;10.95;9.85;;;14.50;99.90;;;;;;5074091;28;20069;-72
2022/06/19 00:37:53;;;;;;;10.57;8.95;;;14.40;99.90;;;;;;5073781;28;20021;-72
2022/06/19 00:40:19;;;;;;;8.90;8.05;;;14.40;99.90;;;;;;5074273;28;20150;-72
2022/06/19 00:42:45;;;;;;;10.77;8.40;;;14.40;99.90;;;;;;5074235;28;20044;-72
2022/06/19 00:45:42;;;;;;;9.88;8.60;;;14.30;99.90;;;;;;5056387;28;20063;-72
2022/06/19 00:48:18;;;;;;;12.90;8.05;;;14.30;99.90;;;;;;5074073;28;20067;-72
2022/06/19 00:50:46;;;;;;;8.63;7.70;;;14.30;99.90;;;;;;5056280;28;20077;-72
2022/06/19 00:53:17;;;;;;;8.00;7.20;;;14.30;99.90;;;;;;5055978;28;20107;-72
2022/06/19 00:55:46;;;;;;;8.80;6.47;;;14.20;99.90;;;;;;5074087;28;20108;-72
2022/06/19 00:58:26;;;;;;;8.38;6.90;;;14.20;99.90;;;;;;5073865;28;20382;-72
2022/06/19 01:00:58;;;;;;;7.35;6.63;;;14.20;99.90;;;;;;5074061;28;20424;-72
2022/06/19 01:03:33;;;;;;;7.25;6.47;;;14.20;99.90;;;;;;5036233;28;20120;-72
2022/06/19 01:05:58;;;;;;;10.82;6.38;;;14.30;99.90;;;;;;5053842;28;20033;-72
2022/06/19 01:08:24;;;;;;;9.73;7.07;;;14.20;99.90;;;;;;5053626;28;20028;-72
2022/06/19 01:10:52;;;;;;;8.15;6.68;;;14.20;99.90;;;;;;5053762;28;20029;-72
2022/06/19 01:13:21;;;;;;;6.93;5.97;;;14.20;99.90;;;;;;5053606;28;20021;-72
2022/06/19 01:15:48;;;;;;;6.95;6.22;;;14.20;99.90;;;;;;5053813;28;20474;-72
2022/06/19 01:18:15;;;;;;;7.82;6.60;;;14.20;99.90;;;;;;5035720;28;20028;-72
2022/06/19 01:20:42;;;;;;;6.95;6.30;;;14.20;99.90;;;;;;5049395;28;20023;-72
2022/06/19 01:23:14;;;;;;;10.40;6.20;;;14.10;99.90;;;;;;5073505;28;20020;-72
2022/06/19 01:25:41;;;;;;;8.07;7.07;;;14.10;99.90;;;;;;5055600;28;20383;-72
2022/06/19 01:31:06;;;;;;;7.53;6.75;;;14.00;99.90;;;;;;5073666;28;20032;-72
2022/06/19 01:33:38;;;;;;;7.68;6.97;;;14.00;99.90;;;;;;5055388;28;20491;-72
2022/06/19 01:36:05;;;;;;;10.48;7.63;;;14.00;99.90;;;;;;5073531;28;20100;-71
2022/06/19 01:38:33;;;;;;;7.68;6.80;;;14.00;99.90;;;;;;5055465;28;20028;-73
2022/06/19 01:41:04;;;;;;;8.63;7.55;;;14.00;99.90;;;;;;5073461;28;20028;-72
2022/06/19 01:43:30;;;;;;;8.30;6.90;;;14.00;99.90;;;;;;5073342;28;20017;-73
2022/06/19 01:45:57;;;;;;;8.52;7.70;;;14.00;99.90;;;;;;5073269;28;20032;-72
2022/06/19 01:48:27;;;;;;;11.07;7.32;;;14.00;99.90;;;;;;5072437;28;20040;-72
2022/06/19 01:50:54;;;;;;;9.02;8.13;;;13.90;99.90;;;;;;5073299;28;20062;-72
2022/06/19 01:53:25;;;;;;;8.55;7.30;;;13.90;99.90;;;;;;5073171;28;20111;-72
2022/06/19 01:55:51;;;;;;;12.18;7.93;;;13.80;99.90;;;;;;5073374;28;20020;-73
2022/06/19 01:58:20;;;;;;;10.57;8.77;;;13.80;99.90;;;;;;5073050;28;20021;-72
2022/06/19 02:00:48;;;;;;;8.70;7.63;;;13.80;99.90;;;;;;5055194;28;20505;-72
2022/06/19 02:03:19;;;;;;;8.95;8.13;;;13.70;99.90;;;;;;5054420;28;20033;-72
2022/06/19 02:05:45;;;;;;;11.10;10.00;;;13.70;99.90;;;;;;5052853;28;20049;-72
2022/06/19 02:08:14;;;;;;;10.65;9.55;;;13.70;99.90;;;;;;5052994;28;20111;-72
2022/06/19 02:10:41;;;;;;;11.95;10.68;;;13.70;99.90;;;;;;5053167;28;20548;-72
2022/06/19 02:13:12;;;;;;;10.52;9.07;;;13.60;99.90;;;;;;5052994;28;20382;-72
2022/06/19 02:15:38;;;;;;;8.77;7.88;;;13.60;99.90;;;;;;5035216;28;20025;-72
2022/06/19 02:18:07;;;;;;;14.13;8.02;;;13.60;99.90;;;;;;5052924;28;20036;-72
2022/06/19 02:20:33;;;;;;;8.45;7.65;;;13.60;99.90;;;;;;5048092;28;20042;-73
2022/06/19 02:23:00;;;;;;;8.57;7.47;;;13.60;99.90;;;;;;5072976;28;20103;-72
2022/06/19 02:25:26;;;;;;;7.97;7.28;;;13.60;99.90;;;;;;5072957;28;20021;-72
2022/06/19 02:27:52;;;;;;;11.07;7.97;;;13.60;99.90;;;;;;5072885;28;20085;-72
2022/06/19 02:30:18;;;;;;;9.32;8.00;;;13.60;99.90;;;;;;5072901;28;20021;-72
2022/06/19 02:32:47;;;;;;;7.90;7.07;;;13.60;99.90;;;;;;5054912;28;20031;-72
2022/06/19 02:35:20;;;;;;;8.75;7.88;;;13.60;99.90;;;;;;5072724;28;20040;-73
2022/06/19 02:37:53;;;;;;;10.32;7.47;;;13.60;99.90;;;;;;5054827;28;20025;-73
2022/06/19 02:40:44;;;;;;;8.57;7.40;;;13.60;99.90;;;;;;5054784;28;20020;-72
2022/06/19 02:43:33;;;;;;;7.60;6.70;;;13.60;99.90;;;;;;5072748;28;20491;-72
2022/06/19 02:46:00;;;;;;;9.45;7.68;;;13.60;99.90;;;;;;5062151;28;20391;-72
2022/06/19 02:48:30;;;;;;;8.18;7.30;;;13.60;99.90;;;;;;5072697;28;20761;-72
2022/06/19 02:50:58;;;;;;;7.95;7.15;;;13.60;99.90;;;;;;5054818;28;20081;-73
2022/06/19 02:53:25;;;;;;;8.73;7.25;;;13.60;99.90;;;;;;5072543;28;20039;-72
2022/06/19 02:55:51;;;;;;;9.88;7.80;;;13.60;99.90;;;;;;5072728;28;20024;-72
2022/06/19 02:58:19;;;;;;;8.63;7.45;;;13.60;99.90;;;;;;5072588;28;20032;-72
2022/06/19 03:00:46;;;;;;;8.95;8.15;;;13.60;99.90;;;;;;5075258;28;20020;-72
2022/06/19 03:03:25;;;;;;;9.23;8.25;;;13.60;99.90;;;;;;5057523;28;20021;-72
2022/06/19 03:05:50;;;;;;;9.18;7.97;;;13.60;99.90;;;;;;5059410;28;20102;-72
2022/06/19 03:08:16;;;;;;;11.85;7.78;;;13.50;99.90;;;;;;5091683;28;20025;-72
2022/06/19 03:10:42;;;;;;;9.07;8.18;;;13.50;99.90;;;;;;5076088;28;20429;-72
2022/06/19 03:13:07;;;;;;;8.80;7.90;;;13.50;99.90;;;;;;5075893;28;20020;-73
2022/06/19 03:15:33;;;;;;;8.75;7.90;;;13.60;99.90;;;;;;5076017;28;20047;-72
2022/06/19 03:17:59;;;;;;;9.88;8.25;;;13.60;99.90;;;;;;5075859;28;20017;-72
2022/06/19 03:20:25;;;;;;;8.88;7.97;;;13.70;99.90;;;;;;5063603;28;20032;-72
2022/06/19 03:22:52;;;;;;;7.75;7.05;;;13.70;99.90;;;;;;5056166;28;20013;-72
2022/06/19 03:25:18;;;;;;;8.63;7.72;;;13.80;99.90;;;;;;5055824;28;20082;-71
2022/06/19 03:27:44;;;;;;;8.52;7.63;;;13.90;99.90;;;;;;5055710;28;20032;-72
2022/06/19 03:30:13;;;;;;;9.10;7.38;;;14.10;99.90;;;;;;5055678;28;20029;-72
2022/06/19 03:32:38;;;;;;;9.00;7.80;;;14.20;99.90;;;;;;5055741;28;20020;-72
2022/06/19 03:35:06;;;;;;;9.35;8.43;;;14.30;99.90;;;;;;5055596;28;20021;-72
2022/06/19 03:37:32;;;;;;;8.27;7.47;;;14.40;99.90;;;;;;5058162;28;20102;-72
2022/06/19 03:39:58;;;;;;;8.45;7.65;;;14.40;99.90;;;;;;5055522;28;20158;-72
2022/06/19 03:42:23;;;;;;;8.50;7.72;;;14.50;99.90;;;;;;5055808;28;20037;-72
2022/06/19 03:44:49;;;;;;;8.93;8.13;;;14.60;99.90;;;;;;5055525;28;20048;-72
2022/06/19 03:47:19;;;;;;;8.35;7.43;;;14.70;99.90;;;;;;5055404;28;20022;-71
2022/06/19 03:49:45;;;;;;;8.85;8.00;;;14.80;99.90;;;;;;5055651;28;20074;-71
2022/06/19 03:52:11;;;;;;;8.40;7.68;;;14.90;99.90;;;;;;5037596;28;20410;-72
2022/06/19 03:54:36;;;;;;;9.63;8.82;;;15.00;99.90;;;;;;5055148;28;20079;-71
2022/06/19 03:57:02;;;;;;;9.43;8.63;;;15.10;99.90;;;;;;5055325;28;20027;-72
2022/06/19 03:59:28;;;;;;;10.52;9.43;;;15.20;99.90;;;;;;5055155;28;20075;-72
2022/06/19 04:01:54;;;;;;;9.50;8.60;;;15.30;99.90;;;;;;5045537;28;20481;-72
2022/06/19 04:04:19;;;;;;;11.07;9.98;;;15.50;99.90;;;;;;5074920;28;20024;-72
2022/06/19 04:06:45;;;;;;;10.20;8.57;;;15.60;99.90;;;;;;5074461;28;20044;-73
2022/06/19 04:09:15;;;;;;;10.00;9.00;;;15.80;99.90;;;;;;5070359;28;20041;-71
2022/06/19 04:11:41;;;;;;;8.63;7.82;;;16.00;99.90;;;;;;5052672;28;20029;-71
2022/06/19 04:14:08;;;;;;;9.48;8.45;;;16.20;99.90;;;;;;5055086;28;20021;-71
2022/06/19 04:16:34;;;;;;;9.70;8.13;;;16.30;99.90;;;;;;5053505;28;20517;-71
2022/06/19 04:19:02;;;;;;;10.13;7.70;;;16.50;99.90;;;;;;5055140;28;20070;-72
2022/06/19 04:21:30;;;;;;;8.70;7.90;;;16.60;99.90;;;;;;5070256;28;20367;-71
2022/06/19 04:23:58;;;;;;;8.50;7.72;;;16.80;99.90;;;;;;5036929;28;20372;-72
2022/06/19 04:26:27;;;;;;;11.10;8.57;;;16.90;99.90;;;;;;5052682;28;20028;-72
2022/06/19 04:28:54;;;;;;;8.70;7.38;;;17.00;99.90;;;;;;5034777;28;20029;-72
2022/06/19 04:31:19;;;;;;;9.07;7.90;;;17.10;99.90;;;;;;5052665;28;20431;-72
2022/06/19 04:33:45;;;;;;;9.63;7.75;;;17.30;99.90;;;;;;5052740;28;20028;-72
2022/06/19 04:36:16;;;;;;;8.55;7.80;;;17.40;99.90;;;;;;5052494;28;20557;-73
2022/06/19 04:38:44;;;;;;;8.93;7.53;;;17.60;99.90;;;;;;5052628;28;20021;-73
2022/06/19 04:41:20;;;;;;;8.57;7.75;;;17.70;99.90;;;;;;5052265;28;20024;-72
2022/06/19 04:43:47;;;;;;;8.35;7.45;;;17.80;99.90;;;;;;5053135;28;20022;-72
2022/06/19 04:46:12;;;;;;;8.63;7.75;;;17.90;99.90;;;;;;5053383;28;20108;-72
2022/06/19 04:48:39;;;;;;;8.93;8.13;;;18.00;99.90;;;;;;5052305;28;20112;-72
2022/06/19 04:51:05;;;;;;;8.63;7.57;;;18.20;99.90;;;;;;5033708;28;20023;-72
2022/06/19 04:53:32;;;;;;;8.60;7.85;;;18.40;99.90;;;;;;5052301;28;20457;-72
2022/06/19 04:55:59;;;;;;;7.80;6.70;;;18.50;99.90;;;;;;5052117;28;20048;-72
2022/06/19 04:58:25;;;;;;;7.70;6.20;;;18.70;99.90;;;;;;5052255;28;20027;-72
2022/06/19 05:00:52;;;;;;;6.50;5.85;;;18.90;99.90;;;;;;5052338;28;20539;-72
2022/06/19 05:03:19;;;;;;;6.43;5.82;;;19.00;99.90;;;;;;5052990;28;20459;-73
2022/06/19 05:05:45;;;;;;;7.20;6.10;;;19.20;99.80;;;;;;5053035;28;20553;-72
2022/06/19 05:08:10;;;;;;;7.78;5.55;;;19.40;97.70;;;;;;5052661;28;20391;-72
2022/06/19 05:10:37;;;;;;;5.90;5.35;;;19.60;96.20;;;;;;5034883;28;20025;-72
2022/06/19 05:13:05;;;;;;;6.10;5.30;;;19.70;94.50;;;;;;5036204;28;20107;-72
2022/06/19 05:15:32;;;;;;;7.65;5.85;;;19.80;89.40;;;;;;5053618;28;20032;-72
2022/06/19 05:17:57;;;;;;;7.43;5.38;;;20.00;86.20;;;;;;5053916;28;20070;-72
2022/06/19 05:20:23;;;;;;;5.75;5.28;;;20.10;86.90;;;;;;5048530;28;20495;-72
2022/06/19 05:22:49;;;;;;;8.60;5.25;;;20.30;87.70;;;;;;5073686;28;20033;-72
2022/06/19 05:25:15;;;;;;;5.75;5.18;;;20.30;86.90;;;;;;5073779;28;20032;-72
2022/06/19 05:27:41;;;;;;;7.32;5.38;;;20.40;87.40;;;;;;5073635;28;20083;-73
2022/06/19 05:30:11;;;;;;;7.95;5.80;;;20.50;86.60;;;;;;5073773;28;20460;-72
2022/06/19 05:32:36;;;;;;;7.47;5.38;;;20.50;88.20;;;;;;5073453;28;20025;-72
2022/06/19 05:35:02;;;;;;;15.95;5.53;;;20.60;89.50;;;;;;5073685;28;20036;-72
2022/06/19 05:37:28;;;;;;;14.18;6.88;;;20.80;85.50;;;;;;5073840;28;20083;-73
2022/06/19 05:39:53;;;;;;;10.18;5.22;;;20.80;86.90;;;;;;5055724;28;20462;-72
2022/06/19 05:42:19;;;;;;;9.25;5.88;;;21.00;82.60;;;;;;5073469;28;20409;-72
2022/06/19 05:44:45;;;;;;;10.45;5.18;;;21.10;81.80;;;;;;5073544;28;20054;-72
2022/06/19 05:47:10;;;;;;;15.10;5.63;;;21.10;78.60;;;;;;5073480;28;20025;-72
2022/06/19 05:49:37;;;;;;;11.98;4.70;;;21.20;79.10;;;;;;5073598;28;20074;-72
2022/06/19 05:52:12;;;;;;;9.93;5.05;;;21.30;78.70;;;;;;5073476;28;20017;-72
2022/06/19 05:54:37;;;;;;;13.43;5.78;;;21.40;77.90;;;;;;5073704;28;20077;-72
2022/06/19 05:57:03;;;;;;;6.50;4.80;;;21.40;76.00;;;;;;5073646;28;20029;-72
2022/06/19 05:59:29;;;;;;;9.23;4.88;;;21.60;77.20;;;;;;5073475;28;20029;-72
2022/06/19 06:01:54;;;;;;;6.10;4.80;;;21.70;78.20;;;;;;5064246;28;20032;-72
2022/06/19 06:04:20;;;;;;;12.40;5.35;;;21.80;77.40;;;;;;5053295;28;20033;-72
2022/06/19 06:06:46;;;;;;;9.98;4.90;;;21.90;77.40;;;;;;5035438;28;20148;-72
2022/06/19 06:09:13;;;;;;;11.05;4.85;;;22.00;77.70;;;;;;5053232;28;20087;-72
2022/06/19 06:11:39;;;;;;;9.27;4.63;;;22.20;77.10;;;;;;5053139;28;20020;-72
2022/06/19 06:14:05;;;;;;;8.05;4.68;;;22.40;75.20;;;;;;5053456;28;20023;-72
2022/06/19 06:16:31;;;;;;;8.90;4.60;;;22.50;72.70;;;;;;5053125;28;20103;-73
2022/06/19 06:18:57;;;;;;;9.82;4.22;;;22.60;72.50;;;;;;5036463;28;20033;-72
2022/06/19 06:21:24;;;;;;;5.30;3.80;;;22.70;70.50;;;;;;5073274;28;20433;-72
2022/06/19 06:23:51;;;;;;;12.48;4.80;;;22.80;69.50;;;;;;5073193;28;20028;-72
2022/06/19 06:26:20;;;;;;;8.05;4.00;;;22.90;70.40;;;;;;5073219;28;20024;-72
2022/06/19 06:28:48;;;;;;;5.95;4.03;;;23.00;68.90;;;;;;5054963;28;20033;-72
2022/06/19 06:31:14;;;;;;;5.40;4.18;;;23.20;68.70;;;;;;5073079;28;20090;-72
2022/06/19 06:33:40;;;;;;;7.40;3.85;;;23.30;67.30;;;;;;5073002;28;20021;-72
2022/06/19 06:36:07;;;;;;;6.35;3.88;;;23.40;67.70;;;;;;5076495;28;20031;-72
2022/06/19 06:38:32;;;;;;;3.28;2.97;;;23.60;68.30;;;;;;5076901;28;20043;-72
2022/06/19 06:40:58;;;;;;;7.38;3.35;;;23.70;67.60;;;;;;5058924;28;20032;-72
2022/06/19 06:43:25;;;;;;;5.75;3.42;;;23.90;67.40;;;;;;5076776;28;20032;-72
2022/06/19 06:45:51;;;;;;;3.72;2.78;;;24.00;64.20;;;;;;5076773;28;20375;-72
2022/06/19 06:48:18;;;;;;;3.85;2.60;;;24.10;61.60;;;;;;5076595;28;20033;-72
2022/06/19 06:50:44;;;;;;;4.32;3.25;;;24.20;60.50;;;;;;5076589;28;20039;-72
2022/06/19 06:53:10;;;;;;;3.30;2.50;;;24.30;60.20;;;;;;5076602;28;20025;-73
2022/06/19 06:55:41;;;;;;;3.22;2.60;;;24.40;60.30;;;;;;5076610;28;20032;-72
2022/06/19 06:58:07;;;;;;;3.53;2.35;;;24.60;60.30;;;;;;5076564;28;20539;-72
2022/06/19 07:00:34;;;;;;;3.80;2.50;;;24.60;58.90;;;;;;5076554;28;20056;-72
2022/06/19 07:02:59;;;;;;;3.88;2.22;;;24.80;58.70;;;;;;5057992;28;20025;-73
2022/06/19 07:05:26;;;;;;;4.00;2.20;;;24.80;57.60;;;;;;5056147;28;20055;-72
2022/06/19 07:07:52;;;;;;;1.88;1.60;;;24.80;56.20;;;;;;5056243;28;20037;-72
2022/06/19 07:10:19;;;;;;;2.92;2.33;;;25.00;57.20;;;;;;5038367;28;20021;-72
2022/06/19 07:12:45;;;;;;;3.00;2.78;;;25.10;56.90;;;;;;5056189;28;20092;-72
2022/06/19 07:15:12;;;;;;;2.67;2.17;;;25.20;57.10;;;;;;5056145;28;20021;-73
2022/06/19 07:17:39;;;;;;;4.15;2.30;;;25.30;56.80;;;;;;5056112;28;20029;-72
2022/06/19 07:20:05;;;;;;;2.10;1.90;;;25.40;56.70;;;;;;5066666;28;20048;-72
2022/06/19 07:22:31;;;;;;;2.70;1.90;;;25.60;57.00;;;;;;5076331;28;20073;-72
2022/06/19 07:24:57;;;;;;;2.50;2.30;;;25.70;56.30;;;;;;5075966;28;20024;-72
2022/06/19 07:27:23;;;;;;;3.15;2.10;;;25.80;54.40;;;;;;5075932;28;20031;-72
2022/06/19 07:29:49;;;;;;;2.50;2.00;;;25.70;54.60;;;;;;5075842;28;20533;-72
2022/06/19 07:32:15;;;;;;;5.22;1.83;;;25.80;54.50;;;;;;5076117;28;20139;-72
2022/06/19 07:34:41;;;;;;;2.67;2.30;;;25.90;54.40;;;;;;5075827;28;20103;-72
2022/06/19 07:37:07;;;;;;;3.75;2.55;;;26.00;54.80;;;;;;5075892;28;20479;-72
2022/06/19 07:39:35;;;;;;;4.47;2.10;;;26.10;53.80;;;;;;5075720;28;20151;-72
2022/06/19 07:42:01;;;;;;;2.42;2.00;;;26.20;54.70;;;;;;5075878;28;20021;-72
2022/06/19 07:44:27;;;;;;;2.40;2.20;;;26.20;54.40;;;;;;5057648;28;20031;-72
2022/06/19 07:52:21;;;;;;;1.95;1.85;;;26.40;53.20;;;;;;5076015;28;20402;-72
2022/06/19 07:54:47;;;;;;;2.97;2.25;;;26.60;53.40;;;;;;5075440;28;20021;-72
2022/06/19 07:57:13;;;;;;;2.47;2.10;;;26.60;53.10;;;;;;5075488;28;20109;-72
2022/06/19 07:59:39;;;;;;;4.15;2.38;;;26.70;53.30;;;;;;5057430;28;20055;-72
2022/06/19 08:02:06;;;;;;;4.93;2.20;;;26.80;52.90;;;;;;5046266;28;20017;-73
2022/06/19 08:04:31;;;;;;;1.77;1.67;;;27.10;54.70;;;;;;5055278;28;20031;-73
2022/06/19 08:06:57;;;;;;;4.13;2.30;;;27.30;53.80;;;;;;5037249;28;20053;-73
2022/06/19 08:09:22;;;;;;;5.03;2.42;;;27.30;52.00;;;;;;5055049;28;20040;-72
2022/06/19 08:11:48;;;;;;;2.72;2.10;;;27.20;51.20;;;;;;5055155;28;20024;-73
2022/06/19 08:14:14;;;;;;;2.83;2.53;;;27.30;52.90;;;;;;5037139;28;20470;-72
2022/06/19 08:16:39;;;;;;;2.13;1.92;;;27.30;52.80;;;;;;5055118;28;20028;-72
2022/06/19 08:19:06;;;;;;;2.70;1.80;;;27.50;53.70;;;;;;5057661;28;20024;-72
2022/06/19 08:21:32;;;;;;;4.18;2.30;;;27.50;51.10;;;;;;5075063;28;20107;-73
2022/06/19 08:23:57;;;;;;;4.38;1.83;;;27.40;52.00;;;;;;5056943;28;20052;-72
2022/06/19 08:26:23;;;;;;;3.65;2.05;;;27.50;52.90;;;;;;5075095;28;20032;-72
2022/06/19 08:31:14;;;;;;;5.18;2.55;;;27.50;51.90;;;;;;5074770;28;20056;-73
2022/06/19 08:33:40;;;;;;;3.80;2.25;;;27.60;51.70;;;;;;5074660;28;20020;-73
2022/06/19 08:36:10;;;;;;;2.28;2.00;;;27.70;51.90;;;;;;5074644;28;20530;-72
2022/06/19 08:38:40;;;;;;;4.55;2.10;;;27.70;50.60;;;;;;5074601;28;20027;-73
2022/06/19 08:41:19;;;;;;;2.95;2.47;;;27.90;51.80;;;;;;5056667;28;20024;-72
2022/06/19 08:43:48;;;;;;;3.17;2.40;;;28.00;51.90;;;;;;5074511;28;20025;-72
2022/06/19 08:46:32;;;;;;;8.10;2.78;;;28.00;51.30;;;;;;5074454;28;20070;-73
2022/06/19 08:49:06;;;;;;;3.42;2.80;;;28.00;51.90;;;;;;5074341;28;20055;-72
2022/06/19 08:51:35;;;;;;;3.40;2.33;;;28.00;51.00;;;;;;5074370;28;20017;-72
2022/06/19 08:54:19;;;;;;;3.75;2.40;;;28.10;50.90;;;;;;5074306;28;20047;-73
2022/06/19 08:57:09;;;;;;;4.55;2.45;;;28.20;51.80;;;;;;5056306;28;20078;-73
2022/06/19 08:59:59;;;;;;;5.38;2.03;;;28.20;52.10;;;;;;5056240;28;20446;-73
2022/06/19 09:02:52;;;;;;;2.28;2.08;;;28.30;50.90;;;;;;5042039;28;20017;-72
2022/06/19 09:05:44;;;;;;;4.88;2.17;;;28.50;50.30;;;;;;5053875;28;20053;-72
2022/06/19 09:08:22;;;;;;;4.70;2.55;;;28.50;50.20;;;;;;5054203;28;20078;-73
2022/06/19 09:11:09;;;;;;;4.05;2.22;;;28.70;50.00;;;;;;5053895;28;20022;-72
2022/06/19 09:13:47;;;;;;;4.15;2.50;;;28.80;49.30;;;;;;5019321;28;20040;-72
2022/06/19 09:16:36;;;;;;;2.88;2.40;;;28.80;49.10;;;;;;5053900;28;20063;-72
2022/06/19 09:19:20;;;;;;;6.75;2.75;;;28.80;48.30;;;;;;5056702;28;20021;-72
2022/06/19 09:22:15;;;;;;;6.18;2.63;;;28.80;49.50;;;;;;5073853;28;20043;-72
2022/06/19 09:24:48;;;;;;;4.13;2.75;;;28.90;48.60;;;;;;5073794;28;20458;-73
2022/06/19 09:27:16;;;;;;;4.85;2.83;;;29.10;50.60;;;;;;5073780;28;20028;-72
2022/06/19 09:29:50;;;;;;;4.25;2.40;;;29.20;50.00;;;;;;5073680;28;20112;-72
2022/06/19 09:32:27;;;;;;;3.35;2.40;;;29.30;49.20;;;;;;5073733;28;20462;-72
2022/06/19 09:35:00;;;;;;;5.28;2.60;;;29.20;49.40;;;;;;5073717;28;20343;-72
2022/06/19 09:37:31;;;;;;;3.42;2.88;;;29.10;48.30;;;;;;5055719;28;20020;-73
2022/06/19 09:40:03;;;;;;;5.40;2.70;;;29.20;49.10;;;;;;5073512;28;20070;-73
2022/06/19 09:42:35;;;;;;;3.03;1.85;;;29.30;50.10;;;;;;5055544;28;20503;-73
2022/06/19 09:45:23;;;;;;;7.13;2.05;;;29.20;46.00;;;;;;5073708;28;20039;-73
2022/06/19 09:47:55;;;;;;;3.00;1.52;;;29.20;45.30;;;;;;5073550;28;20546;-72
2022/06/19 09:50:34;;;;;;;2.17;1.98;;;29.20;45.20;;;;;;5073402;28;20067;-73
2022/06/19 09:53:06;;;;;;;5.38;1.50;;;29.30;45.40;;;;;;5073735;28;20051;-73
2022/06/19 09:55:47;;;;;;;2.65;2.08;;;29.30;46.20;;;;;;5055799;28;20107;-73
2022/06/19 09:58:23;;;;;;;5.78;1.90;;;29.40;46.70;;;;;;5073481;28;20389;-73
2022/06/19 10:00:55;;;;;;;2.88;1.95;;;29.30;46.60;;;;;;5071894;28;20036;-72
2022/06/19 10:03:39;;;;;;;2.40;1.63;;;29.30;47.80;;;;;;5053365;28;20036;-73
2022/06/19 10:06:15;;;;;;;4.28;2.70;;;29.40;49.00;;;;;;5053051;28;20136;-73
2022/06/19 10:08:44;;;;;;;3.50;1.90;;;29.50;47.00;;;;;;5053249;28;20398;-73
2022/06/19 10:11:17;;;;;;;5.15;2.55;;;29.50;47.80;;;;;;5039017;28;20047;-73
2022/06/19 10:13:51;;;;;;;6.32;2.60;;;29.40;45.60;;;;;;5057472;28;20033;-73
2022/06/19 10:16:44;;;;;;;7.90;2.60;;;29.50;45.60;;;;;;5039409;28;20021;-73
2022/06/19 10:19:39;;;;;;;5.40;2.03;;;29.60;47.00;;;;;;5061394;28;20022;-73
2022/06/19 10:22:15;;;;;;;7.90;1.73;;;29.70;47.20;;;;;;5077343;28;20040;-73
2022/06/19 10:25:18;;;;;;;4.43;2.00;;;29.60;45.40;;;;;;5077401;28;20025;-73
2022/06/19 10:27:55;;;;;;;4.68;1.90;;;29.60;45.50;;;;;;5077203;28;20033;-73
2022/06/19 10:30:32;;;;;;;3.05;1.73;;;29.70;45.00;;;;;;5077120;28;20044;-73
2022/06/19 10:33:04;;;;;;;3.85;1.90;;;29.90;45.40;;;;;;5077209;28;20021;-73
2022/06/19 10:35:56;;;;;;;6.00;2.35;;;30.00;45.50;;;;;;5077036;28;20056;-73
2022/06/19 10:39:10;;;;;;;4.43;1.63;;;30.20;44.50;;;;;;5077037;28;20099;-73
2022/06/19 10:44:47;;;;;;;4.00;1.67;;;30.20;44.70;;;;;;5076931;28;20043;-73
2022/06/19 10:47:47;;;;;;;4.15;1.60;;;30.30;44.90;;;;;;5058768;28;20017;-73
2022/06/19 10:50:18;;;;;;;5.82;2.30;;;30.20;44.00;;;;;;5076725;28;20025;-73
2022/06/19 10:53:09;;;;;;;4.25;1.70;;;30.00;41.60;;;;;;5076671;28;20024;-73
2022/06/19 10:55:59;;;;;;;6.25;1.80;;;30.30;42.80;;;;;;5058637;28;20020;-73
2022/06/19 10:58:28;;;;;;;4.53;1.55;;;30.20;41.20;;;;;;5076834;28;20031;-73
2022/06/19 11:01:06;;;;;;;3.88;1.63;;;30.20;42.00;;;;;;5074125;28;20021;-73
2022/06/19 11:04:12;;;;;;;6.22;2.17;;;30.40;40.50;;;;;;5056574;28;20104;-73
2022/06/19 11:06:45;;;;;;;6.15;2.60;;;30.50;40.70;;;;;;5055568;28;20041;-72
2022/06/19 11:09:31;;;;;;;7.45;3.30;;;30.70;40.80;;;;;;5056250;28;20032;-73
2022/06/19 11:12:03;;;;;;;7.30;2.50;;;30.50;40.60;;;;;;5056145;28;20079;-74
2022/06/19 11:14:44;;;;;;;31.15;22.98;;;30.50;40.40;;;;;;5056317;28;20068;-73
2022/06/19 11:17:27;;;;;;;15.15;9.18;;;30.60;42.00;;;;;;5056191;28;20029;-73
2022/06/19 11:19:52;;;;;;;20.77;10.85;;;30.40;40.80;;;;;;5066333;28;20065;-73
2022/06/19 11:22:32;;;;;;;14.43;5.55;;;30.40;40.90;;;;;;5075912;28;20111;-73
2022/06/19 11:25:19;;;;;;;12.60;5.75;;;30.50;40.80;;;;;;5058087;28;20165;-73
2022/06/19 11:28:08;;;;;;;8.25;2.60;;;30.10;38.60;;;;;;5075971;28;20040;-72
2022/06/19 11:30:36;;;;;;;20.05;5.28;;;30.20;38.90;;;;;;5076199;28;20044;-73
2022/06/19 11:33:09;;;;;;;11.10;4.53;;;30.20;39.60;;;;;;5057979;28;20074;-73
2022/06/19 11:35:47;;;;;;;16.50;4.82;;;30.30;39.40;;;;;;5075946;28;20017;-73
2022/06/19 11:38:16;;;;;;;21.23;3.85;;;30.20;39.70;;;;;;5075895;28;20085;-73
2022/06/19 11:40:48;;;;;;;10.50;3.58;;;30.30;41.20;;;;;;5075886;28;20021;-73
2022/06/19 11:43:30;;;;;;;5.88;2.67;;;30.40;40.70;;;;;;5075708;28;20060;-73
2022/06/19 11:46:06;;;;;;;16.63;6.18;;;30.40;40.50;;;;;;5075868;28;20023;-73
2022/06/19 11:48:32;;;;;;;10.30;3.60;;;30.30;40.40;;;;;;5057621;28;20028;-73
2022/06/19 11:50:58;;;;;;;14.48;5.18;;;30.50;41.60;;;;;;5075544;28;20489;-73
2022/06/19 11:53:40;;;;;;;10.43;2.70;;;30.70;41.10;;;;;;5075373;28;20035;-73
2022/06/19 11:56:14;;;;;;;8.30;3.78;;;30.60;40.30;;;;;;5075659;28;20020;-73
2022/06/19 11:58:46;;;;;;;17.25;5.90;;;30.60;40.90;;;;;;5057396;28;20558;-73
2022/06/19 12:01:16;;;;;;;11.98;3.75;;;30.60;41.40;;;;;;5052353;28;20418;-73
2022/06/19 12:03:50;;;;;;;7.95;2.80;;;30.60;40.50;;;;;;5055338;28;20025;-73
2022/06/19 12:06:18;;;;;;;6.13;2.70;;;30.80;40.30;;;;;;5055297;28;20045;-72
2022/06/19 12:09:00;;;;;;;13.93;4.07;;;30.90;41.00;;;;;;5037293;28;20072;-73
2022/06/19 12:11:40;;;;;;;13.00;4.53;;;31.10;42.00;;;;;;5055336;28;20025;-73
2022/06/19 12:14:11;;;;;;;10.98;3.38;;;31.10;40.60;;;;;;5055029;28;20025;-73
2022/06/19 12:16:38;;;;;;;7.72;2.67;;;31.00;40.50;;;;;;5055093;28;20025;-73
2022/06/19 12:19:19;;;;;;;9.48;3.30;;;30.90;39.60;;;;;;5058676;28;20474;-73
2022/06/19 12:21:57;;;;;;;15.23;4.38;;;30.90;39.80;;;;;;5075055;28;20017;-73
2022/06/19 12:24:30;;;;;;;20.67;5.90;;;31.00;40.70;;;;;;5074864;28;20020;-73
2022/06/19 12:27:00;;;;;;;18.20;5.95;;;31.00;40.10;;;;;;5056960;28;20374;-73
2022/06/19 12:29:31;;;;;;;10.95;3.95;;;31.00;40.60;;;;;;5074715;28;20029;-73
2022/06/19 12:32:04;;;;;;;14.68;4.57;;;31.00;40.50;;;;;;5074163;28;20382;-73
2022/06/19 12:34:36;;;;;;;10.57;4.30;;;31.10;41.30;;;;;;5074741;28;20469;-73
2022/06/19 12:37:02;;;;;;;;;;;31.30;42.30;;;;;;5075297;28;20485;-74
2022/06/19 12:39:31;;;;;;;8.70;3.25;;;31.30;41.10;;;;;;5074499;28;19936;-73
2022/06/19 12:42:11;;;;;;;17.75;6.32;;;31.40;39.90;;;;;;5074644;28;20478;-73
2022/06/19 12:45:09;;;;;;;12.23;4.88;;;31.30;40.30;;;;;;5074465;28;20493;-73
2022/06/19 12:47:59;;;;;;;8.75;4.78;;;31.20;40.20;;;;;;5074611;28;20497;-73
2022/06/19 12:50:40;;;;;;;10.63;5.10;;;31.20;41.90;;;;;;5074461;28;20103;-73
2022/06/19 12:53:23;;;;;;;8.70;3.63;;;31.30;40.90;;;;;;5074184;28;20024;-73
2022/06/19 12:56:28;;;;;;;13.02;4.70;;;31.30;41.10;;;;;;5056722;28;20140;-73
2022/06/19 12:59:15;;;;;;;9.43;3.30;;;31.20;40.90;;;;;;5074449;28;20071;-73
2022/06/19 13:02:09;;;;;;;12.00;3.67;;;31.20;40.10;;;;;;5047002;28;20036;-73
2022/06/19 13:04:54;;;;;;;12.77;4.30;;;31.10;39.90;;;;;;5035933;28;20025;-74
2022/06/19 13:07:38;;;;;;;14.63;5.45;;;31.10;39.80;;;;;;5054166;28;20033;-73
2022/06/19 13:10:24;;;;;;;9.23;3.42;;;31.30;40.90;;;;;;5054010;28;20036;-73
2022/06/19 13:13:33;;;;;;;9.50;4.82;;;31.30;40.10;;;;;;5053933;28;20028;-73
2022/06/19 13:16:08;;;;;;;9.27;3.25;;;31.30;41.10;;;;;;5042460;28;20129;-73
2022/06/19 13:18:39;;;;;;;15.15;5.30;;;31.40;41.50;;;;;;5035992;28;20509;-73
2022/06/19 13:21:12;;;;;;;5.65;3.50;;;31.50;40.90;;;;;;5074088;28;20070;-73